Aérodrome :
LOGIN :

S'inscrire | Disclaimer

   EN    FR    IT 

 










Légende :    VFR   VFR Marginal   IFR   IFR Intensif   IFR Très Intensif
Visi : 
Plafond : 
>= 8 km
>= 3000ft
5 à 8 km
1000 à 3000 ft
1500m à 5 km
500 à 1000 ft
800 à 1500m
200 à 500 ft
< 800m
< 200 ft
Symboles :   Orages  Brouillard  Fortes neiges  Fortes précipitations  Vent > 20 kt
SIGMETs :   Divers  Orages  Givrage  Turbulence  Onde Orograph.  Cendres Volcan.







- Altitude de l'aérodrome : 353 ft
- Code IATA : LIN


LIML - Milano Linate

DERNIER METAR :
  • 191820Z VRB03KT 9999 FEW020 SCT060 17/10 Q1011 NOSIG

METARs EXPIRÉS :
  • 191750Z VRB03KT 9999 FEW020 SCT060 18/08 Q1011 NOSIG
  • 191720Z 13005KT 110V170 9999 FEW020 SCT060 19/08 Q1011 NOSIG
  • 191650Z 12005KT 9999 FEW020 SCT060 19/08 Q1011 NOSIG
  • 191550Z 12005KT 070V160 9999 FEW020 SCT060 20/08 Q1010 NOSIG

TAF TAF LIML
Valide du 19 à 18h jusqu'au 20 à 18h UTC


191700Z 1918/2018 02010KT 9999 SCT040 SCT080
Pas de NOTAMs connus pour ce terrain.
2 SIGMETs publiés pour la FIR Milano (LIMM) :
 
Orages noyés dans la masse
LIMM SIGMET 9 VALID 191700/192000 LIMM
LIMM MILANO FIR EMBD TS FCST WI N4625 E00927 - N4530 E00927 - N4413 E00921 - N4326 E00955 - N4343 E01034 - N4346 E01125 - N4328 E01428 - N4458 E01255 - N4527 E01300 - N4537 E01354 - N4634 E01337 - N4703 E01200 - N4625 E00927 TOP FL340 MOV SE NC=
Turbulence forte
LIMM SIGMET 10 VALID 191700/192000 LIMM
LIMM MILANO FIR SEV TURB FCST W OF LINE N4624 E00949 - N4316 E00900 FL220/370 MOV E NC=



MET'MAP, la Météo Aéronautique d'un coup d'oeil ! - Copyright ORBIFLY Décembre 2007 - Disclaimer

ORBIFLY MET'MAP TEAM :

Programmation & Développement : Alexandra Zaïnal
Conception & Développement : Baudouin d'Aumeries
Co-Programmation & Développement : Marc-Olivier Méhu
Soutien technique & logistique : Manuel Goepfert

Contact : metmap@orbifly.com




SOURCES & CREDITS :

   NOAA